sensor_id;sensor_type;location;lat;lon;timestamp;pressure;altitude;pressure_sealevel;temperature;humidity
53940;BME280;39850;43.324;21.916;2023-02-14T00:36:24;1010.0;;;2.7;74.0
53940;BME280;39850;43.324;21.916;2023-02-14T00:41:03;1010.0;;;2.7;74.0
53940;BME280;39850;43.324;21.916;2023-02-14T00:45:40;1010.0;;;2.7;74.0
53940;BME280;39850;43.324;21.916;2023-02-14T00:50:17;1010.0;;;2.7;74.0
53940;BME280;39850;43.324;21.916;2023-02-14T00:54:54;1010.0;;;2.7;74.0
53940;BME280;39850;43.324;21.916;2023-02-14T00:59:31;1010.0;;;2.7;74.0
53940;BME280;39850;43.324;21.916;2023-02-14T01:04:09;1010.0;;;2.7;74.0
53940;BME280;39850;43.324;21.916;2023-02-14T01:08:46;1010.0;;;2.7;74.0
53940;BME280;39850;43.324;21.916;2023-02-14T01:13:24;1010.0;;;2.7;74.0
53940;BME280;39850;43.324;21.916;2023-02-14T01:18:01;1010.0;;;2.7;74.0
53940;BME280;39850;43.324;21.916;2023-02-14T01:22:39;1010.0;;;2.7;74.0
53940;BME280;39850;43.324;21.916;2023-02-14T01:55:46;1009.0;;;2.5;73.0
53940;BME280;39850;43.324;21.916;2023-02-14T02:00:27;1009.0;;;2.5;73.0
53940;BME280;39850;43.324;21.916;2023-02-14T02:05:05;1009.0;;;2.6;74.0
53940;BME280;39850;43.324;21.916;2023-02-14T02:10:02;1009.0;;;2.6;74.0
53940;BME280;39850;43.324;21.916;2023-02-14T02:14:42;1009.0;;;2.6;74.0
53940;BME280;39850;43.324;21.916;2023-02-14T02:22:38;1009.0;;;2.6;74.0
53940;BME280;39850;43.324;21.916;2023-02-14T02:29:01;1009.0;;;2.6;74.0
53940;BME280;39850;43.324;21.916;2023-02-14T02:36:28;1009.0;;;2.6;74.0
53940;BME280;39850;43.324;21.916;2023-02-14T02:41:59;1009.0;;;2.6;74.0
53940;BME280;39850;43.324;21.916;2023-02-14T03:16:29;1009.0;;;3.6;72.0
53940;BME280;39850;43.324;21.916;2023-02-14T03:21:51;1009.0;;;3.6;72.0
53940;BME280;39850;43.324;21.916;2023-02-14T03:26:56;1009.0;;;3.6;72.0
53940;BME280;39850;43.324;21.916;2023-02-14T03:32:13;1009.0;;;3.6;72.0
53940;BME280;39850;43.324;21.916;2023-02-14T03:37:26;1009.0;;;3.6;72.0
53940;BME280;39850;43.324;21.916;2023-02-14T03:42:34;1009.0;;;3.6;72.0
53940;BME280;39850;43.324;21.916;2023-02-14T03:47:33;1009.0;;;3.4;73.0
53940;BME280;39850;43.324;21.916;2023-02-14T03:52:25;1009.0;;;3.4;73.0
53940;BME280;39850;43.324;21.916;2023-02-14T03:57:33;1009.0;;;3.1;74.0
53940;BME280;39850;43.324;21.916;2023-02-14T04:02:46;1009.0;;;3.1;74.0
53940;BME280;39850;43.324;21.916;2023-02-14T04:35:42;1008.0;;;2.5;74.0
53940;BME280;39850;43.324;21.916;2023-02-14T04:40:20;1008.0;;;2.5;74.0
53940;BME280;39850;43.324;21.916;2023-02-14T04:44:57;1008.0;;;2.5;75.0
53940;BME280;39850;43.324;21.916;2023-02-14T04:49:36;1008.0;;;2.5;75.0
53940;BME280;39850;43.324;21.916;2023-02-14T04:54:13;1008.0;;;2.5;74.0
53940;BME280;39850;43.324;21.916;2023-02-14T04:58:49;1008.0;;;2.5;74.0
53940;BME280;39850;43.324;21.916;2023-02-14T05:03:26;1008.0;;;2.5;74.0
53940;BME280;39850;43.324;21.916;2023-02-14T05:08:02;1008.0;;;2.8;75.0
53940;BME280;39850;43.324;21.916;2023-02-14T05:12:39;1008.0;;;2.8;75.0
53940;BME280;39850;43.324;21.916;2023-02-14T05:17:16;1008.0;;;3.2;74.0
53940;BME280;39850;43.324;21.916;2023-02-14T05:21:53;1008.0;;;3.2;74.0
53940;BME280;39850;43.324;21.916;2023-02-14T05:54:11;1008.0;;;3.1;75.0
53940;BME280;39850;43.324;21.916;2023-02-14T05:58:48;1008.0;;;3.1;75.0
53940;BME280;39850;43.324;21.916;2023-02-14T06:03:26;1008.0;;;3.1;75.0
53940;BME280;39850;43.324;21.916;2023-02-14T06:08:03;1008.0;;;2.8;75.0
53940;BME280;39850;43.324;21.916;2023-02-14T06:12:39;1008.0;;;2.8;75.0
53940;BME280;39850;43.324;21.916;2023-02-14T06:17:16;1008.0;;;3.0;75.0
53940;BME280;39850;43.324;21.916;2023-02-14T06:21:53;1008.0;;;3.0;75.0
53940;BME280;39850;43.324;21.916;2023-02-14T06:26:30;1008.0;;;2.8;75.0
53940;BME280;39850;43.324;21.916;2023-02-14T06:31:07;1008.0;;;2.8;75.0
53940;BME280;39850;43.324;21.916;2023-02-14T06:35:53;1008.0;;;3.0;75.0
53940;BME280;39850;43.324;21.916;2023-02-14T06:40:30;1008.0;;;3.0;75.0
53940;BME280;39850;43.324;21.916;2023-02-14T07:17:28;1008.0;;;3.6;75.0
53940;BME280;39850;43.324;21.916;2023-02-14T07:22:04;1008.0;;;3.6;75.0
53940;BME280;39850;43.324;21.916;2023-02-14T07:26:41;1008.0;;;3.6;75.0
53940;BME280;39850;43.324;21.916;2023-02-14T07:31:19;1008.0;;;3.6;75.0
53940;BME280;39850;43.324;21.916;2023-02-14T07:35:56;1008.0;;;3.6;75.0
53940;BME280;39850;43.324;21.916;2023-02-14T07:40:33;1008.0;;;3.6;75.0
53940;BME280;39850;43.324;21.916;2023-02-14T07:45:10;1008.0;;;3.6;75.0
53940;BME280;39850;43.324;21.916;2023-02-14T07:49:47;1008.0;;;3.6;75.0
53940;BME280;39850;43.324;21.916;2023-02-14T07:54:24;1008.0;;;3.6;74.0
53940;BME280;39850;43.324;21.916;2023-02-14T07:59:02;1008.0;;;3.6;74.0
53940;BME280;39850;43.324;21.916;2023-02-14T08:03:38;1008.0;;;3.6;74.0
53940;BME280;39850;43.324;21.916;2023-02-14T08:36:07;1008.0;;;4.5;75.0
53940;BME280;39850;43.324;21.916;2023-02-14T08:40:45;1008.0;;;4.5;75.0
53940;BME280;39850;43.324;21.916;2023-02-14T08:45:22;1008.0;;;4.5;74.0
53940;BME280;39850;43.324;21.916;2023-02-14T08:49:59;1008.0;;;4.5;74.0
53940;BME280;39850;43.324;21.916;2023-02-14T08:54:36;1008.0;;;4.5;74.0
53940;BME280;39850;43.324;21.916;2023-02-14T08:59:13;1008.0;;;4.5;74.0
53940;BME280;39850;43.324;21.916;2023-02-14T09:03:49;1008.0;;;4.5;74.0
53940;BME280;39850;43.324;21.916;2023-02-14T09:08:26;1008.0;;;4.4;73.0
53940;BME280;39850;43.324;21.916;2023-02-14T09:13:04;1008.0;;;4.4;73.0
53940;BME280;39850;43.324;21.916;2023-02-14T09:17:42;1008.0;;;4.4;72.0
53940;BME280;39850;43.324;21.916;2023-02-14T09:22:19;1008.0;;;4.4;72.0
53940;BME280;39850;43.324;21.916;2023-02-14T10:05:29;1008.0;;;6.4;69.0
53940;BME280;39850;43.324;21.916;2023-02-14T10:10:34;1008.0;;;6.4;69.0
53940;BME280;39850;43.324;21.916;2023-02-14T10:15:32;1008.0;;;6.4;68.0
53940;BME280;39850;43.324;21.916;2023-02-14T10:20:36;1008.0;;;6.4;68.0
53940;BME280;39850;43.324;21.916;2023-02-14T10:25:36;1008.0;;;6.4;68.0
53940;BME280;39850;43.324;21.916;2023-02-14T10:30:22;1008.0;;;6.4;68.0
53940;BME280;39850;43.324;21.916;2023-02-14T10:35:47;1008.0;;;6.4;68.0
53940;BME280;39850;43.324;21.916;2023-02-14T10:41:32;1008.0;;;6.4;68.0
53940;BME280;39850;43.324;21.916;2023-02-14T11:15:34;1007.0;;;6.2;67.0
53940;BME280;39850;43.324;21.916;2023-02-14T11:20:28;1007.0;;;6.2;67.0
53940;BME280;39850;43.324;21.916;2023-02-14T11:25:27;1007.0;;;6.2;67.0
53940;BME280;39850;43.324;21.916;2023-02-14T11:30:34;1007.0;;;6.2;67.0
53940;BME280;39850;43.324;21.916;2023-02-14T11:35:28;1007.0;;;6.2;67.0
53940;BME280;39850;43.324;21.916;2023-02-14T11:40:35;1007.0;;;6.2;67.0
53940;BME280;39850;43.324;21.916;2023-02-14T11:45:41;1007.0;;;6.2;67.0
53940;BME280;39850;43.324;21.916;2023-02-14T11:50:24;1007.0;;;6.2;67.0
53940;BME280;39850;43.324;21.916;2023-02-14T11:55:02;1007.0;;;6.2;67.0
53940;BME280;39850;43.324;21.916;2023-02-14T11:59:54;1007.0;;;6.2;67.0
53940;BME280;39850;43.324;21.916;2023-02-14T12:04:50;1007.0;;;6.2;67.0
53940;BME280;39850;43.324;21.916;2023-02-14T12:40:13;1006.0;;;6.4;69.0
53940;BME280;39850;43.324;21.916;2023-02-14T12:45:22;1006.0;;;6.4;69.0
53940;BME280;39850;43.324;21.916;2023-02-14T12:50:59;1006.0;;;6.4;69.0
53940;BME280;39850;43.324;21.916;2023-02-14T12:56:17;1006.0;;;6.4;69.0
53940;BME280;39850;43.324;21.916;2023-02-14T13:02:30;1006.0;;;6.4;69.0
53940;BME280;39850;43.324;21.916;2023-02-14T13:08:19;1006.0;;;6.0;70.0
53940;BME280;39850;43.324;21.916;2023-02-14T13:13:53;1006.0;;;6.0;70.0
53940;BME280;39850;43.324;21.916;2023-02-14T13:19:04;1006.0;;;5.6;71.0
53940;BME280;39850;43.324;21.916;2023-02-14T13:24:20;1006.0;;;5.6;71.0
53940;BME280;39850;43.324;21.916;2023-02-14T14:17:24;1006.0;;;4.5;79.0
53940;BME280;39850;43.324;21.916;2023-02-14T14:22:13;1006.0;;;4.5;79.0
53940;BME280;39850;43.324;21.916;2023-02-14T14:27:12;1006.0;;;4.5;79.0
53940;BME280;39850;43.324;21.916;2023-02-14T14:31:51;1006.0;;;4.5;79.0
53940;BME280;39850;43.324;21.916;2023-02-14T14:36:28;1006.0;;;4.5;79.0
53940;BME280;39850;43.324;21.916;2023-02-14T14:41:05;1006.0;;;4.5;79.0
53940;BME280;39850;43.324;21.916;2023-02-14T15:20:16;1006.0;;;4.4;78.0
53940;BME280;39850;43.324;21.916;2023-02-14T15:24:57;1006.0;;;4.4;78.0
53940;BME280;39850;43.324;21.916;2023-02-14T15:29:33;1006.0;;;4.9;77.0
53940;BME280;39850;43.324;21.916;2023-02-14T15:34:14;1006.0;;;4.9;77.0
53940;BME280;39850;43.324;21.916;2023-02-14T15:38:57;1006.0;;;5.4;76.0
53940;BME280;39850;43.324;21.916;2023-02-14T15:43:37;1006.0;;;5.4;76.0
53940;BME280;39850;43.324;21.916;2023-02-14T15:48:31;1006.0;;;5.4;75.0
53940;BME280;39850;43.324;21.916;2023-02-14T15:53:51;1006.0;;;5.4;75.0
53940;BME280;39850;43.324;21.916;2023-02-14T15:58:38;1006.0;;;5.5;74.0
53940;BME280;39850;43.324;21.916;2023-02-14T16:03:32;1006.0;;;5.5;74.0
53940;BME280;39850;43.324;21.916;2023-02-14T16:37:32;1007.0;;;4.5;78.0
53940;BME280;39850;43.324;21.916;2023-02-14T16:42:18;1007.0;;;4.5;78.0
53940;BME280;39850;43.324;21.916;2023-02-14T16:46:55;1007.0;;;4.0;79.0
53940;BME280;39850;43.324;21.916;2023-02-14T16:51:36;1007.0;;;4.0;79.0
53940;BME280;39850;43.324;21.916;2023-02-14T16:56:32;1007.0;;;4.5;78.0
53940;BME280;39850;43.324;21.916;2023-02-14T17:01:11;1007.0;;;4.5;78.0
53940;BME280;39850;43.324;21.916;2023-02-14T17:05:49;1007.0;;;4.5;78.0
53940;BME280;39850;43.324;21.916;2023-02-14T17:10:30;1007.0;;;4.0;79.0
53940;BME280;39850;43.324;21.916;2023-02-14T17:15:21;1007.0;;;4.0;79.0
53940;BME280;39850;43.324;21.916;2023-02-14T17:19:58;1007.0;;;4.5;78.0
53940;BME280;39850;43.324;21.916;2023-02-14T17:24:35;1007.0;;;4.5;78.0
53940;BME280;39850;43.324;21.916;2023-02-14T17:56:54;1007.0;;;6.4;72.0
53940;BME280;39850;43.324;21.916;2023-02-14T18:01:31;1007.0;;;6.4;72.0
53940;BME280;39850;43.324;21.916;2023-02-14T18:06:10;1007.0;;;6.4;72.0
53940;BME280;39850;43.324;21.916;2023-02-14T18:10:46;1007.0;;;6.4;71.0
53940;BME280;39850;43.324;21.916;2023-02-14T18:15:23;1007.0;;;6.4;71.0
53940;BME280;39850;43.324;21.916;2023-02-14T18:20:00;1007.0;;;6.4;71.0
53940;BME280;39850;43.324;21.916;2023-02-14T18:24:36;1007.0;;;6.4;71.0
53940;BME280;39850;43.324;21.916;2023-02-14T18:29:13;1007.0;;;6.4;70.0
53940;BME280;39850;43.324;21.916;2023-02-14T18:33:51;1007.0;;;6.4;70.0
53940;BME280;39850;43.324;21.916;2023-02-14T18:38:28;1007.0;;;6.4;71.0
53940;BME280;39850;43.324;21.916;2023-02-14T18:43:06;1007.0;;;6.4;71.0
53940;BME280;39850;43.324;21.916;2023-02-14T19:20:12;1007.0;;;6.4;69.0
53940;BME280;39850;43.324;21.916;2023-02-14T19:24:52;1007.0;;;6.4;69.0
53940;BME280;39850;43.324;21.916;2023-02-14T19:29:29;1007.0;;;6.4;69.0
53940;BME280;39850;43.324;21.916;2023-02-14T19:34:22;1007.0;;;6.4;69.0
53940;BME280;39850;43.324;21.916;2023-02-14T19:38:59;1007.0;;;6.4;69.0
53940;BME280;39850;43.324;21.916;2023-02-14T19:43:35;1007.0;;;6.4;69.0
53940;BME280;39850;43.324;21.916;2023-02-14T19:48:12;1007.0;;;6.4;69.0
53940;BME280;39850;43.324;21.916;2023-02-14T19:52:49;1007.0;;;6.4;69.0
53940;BME280;39850;43.324;21.916;2023-02-14T19:57:25;1007.0;;;6.4;69.0
53940;BME280;39850;43.324;21.916;2023-02-14T20:02:02;1007.0;;;6.4;69.0
53940;BME280;39850;43.324;21.916;2023-02-14T20:06:40;1007.0;;;6.4;69.0
53940;BME280;39850;43.324;21.916;2023-02-14T20:48:32;1007.0;;;5.3;69.0
53940;BME280;39850;43.324;21.916;2023-02-14T20:53:09;1007.0;;;5.3;69.0
53940;BME280;39850;43.324;21.916;2023-02-14T20:57:45;1007.0;;;5.3;69.0
53940;BME280;39850;43.324;21.916;2023-02-14T21:02:22;1007.0;;;5.3;69.0
53940;BME280;39850;43.324;21.916;2023-02-14T21:06:58;1007.0;;;5.3;69.0
53940;BME280;39850;43.324;21.916;2023-02-14T21:11:35;1007.0;;;5.3;69.0
53940;BME280;39850;43.324;21.916;2023-02-14T21:16:19;1007.0;;;5.3;69.0
53940;BME280;39850;43.324;21.916;2023-02-14T21:21:10;1007.0;;;5.3;69.0
53940;BME280;39850;43.324;21.916;2023-02-14T21:25:47;1007.0;;;5.3;69.0
53940;BME280;39850;43.324;21.916;2023-02-14T21:58:03;1007.0;;;5.5;70.0
53940;BME280;39850;43.324;21.916;2023-02-14T22:02:40;1007.0;;;5.5;70.0
53940;BME280;39850;43.324;21.916;2023-02-14T22:07:16;1007.0;;;5.5;70.0
53940;BME280;39850;43.324;21.916;2023-02-14T22:11:53;1007.0;;;5.2;71.0
53940;BME280;39850;43.324;21.916;2023-02-14T22:16:31;1007.0;;;5.2;71.0
53940;BME280;39850;43.324;21.916;2023-02-14T22:21:18;1007.0;;;5.0;71.0
53940;BME280;39850;43.324;21.916;2023-02-14T22:25:55;1007.0;;;5.0;71.0
53940;BME280;39850;43.324;21.916;2023-02-14T22:30:32;1007.0;;;4.7;72.0
53940;BME280;39850;43.324;21.916;2023-02-14T22:35:08;1007.0;;;4.7;72.0
53940;BME280;39850;43.324;21.916;2023-02-14T22:39:45;1007.0;;;4.4;73.0
53940;BME280;39850;43.324;21.916;2023-02-14T22:44:22;1007.0;;;4.4;73.0
53940;BME280;39850;43.324;21.916;2023-02-14T23:21:22;1007.0;;;4.5;75.0
53940;BME280;39850;43.324;21.916;2023-02-14T23:26:00;1007.0;;;4.5;75.0
53940;BME280;39850;43.324;21.916;2023-02-14T23:30:36;1007.0;;;4.6;75.0
53940;BME280;39850;43.324;21.916;2023-02-14T23:35:14;1007.0;;;4.6;75.0
53940;BME280;39850;43.324;21.916;2023-02-14T23:39:51;1007.0;;;4.7;75.0
53940;BME280;39850;43.324;21.916;2023-02-14T23:44:29;1007.0;;;4.7;75.0
53940;BME280;39850;43.324;21.916;2023-02-14T23:49:06;1007.0;;;5.4;75.0
53940;BME280;39850;43.324;21.916;2023-02-14T23:53:43;1007.0;;;5.4;75.0
53940;BME280;39850;43.324;21.916;2023-02-14T23:58:19;1007.0;;;6.1;74.0
